Time;durP1;ratioP1;P1;durP2;ratioP2;P2;SDS_P1;SDS_P2;PMS_P1;PMS_P2;Temp;Humidity;BMP_temperature;BMP_pressure;BME280_temperature;BME280_humidity;BME280_pressure;Samples;Min_cycle;Max_cycle;Signal;HPM_P1;HPM_P2
2020/12/09 00:02:08;;;;;;;51.55;25.77;;;3.10;81.10;;;;;;5035164;28;20033;-76
2020/12/09 00:04:36;;;;;;;44.55;24.30;;;3.10;81.20;;;;;;5035619;28;20025;-84
2020/12/09 00:07:02;;;;;;;39.05;23.15;;;3.10;81.20;;;;;;5033110;23;20089;-76
2020/12/09 00:09:29;;;;;;;41.88;23.08;;;3.10;81.30;;;;;;5035011;28;20065;-77
2020/12/09 00:11:55;;;;;;;42.15;24.15;;;3.10;81.30;;;;;;5034712;28;20037;-76
2020/12/09 00:14:21;;;;;;;43.70;23.17;;;3.10;81.40;;;;;;5034418;28;20017;-85
2020/12/09 00:16:48;;;;;;;42.67;23.48;;;3.10;81.40;;;;;;5036067;28;20226;-89
2020/12/09 00:19:13;;;;;;;46.13;25.20;;;3.20;81.50;;;;;;5018112;28;20057;-77
2020/12/09 00:21:39;;;;;;;39.22;22.50;;;3.20;81.50;;;;;;5034570;28;20065;-77
2020/12/09 00:24:04;;;;;;;46.35;25.83;;;3.20;81.70;;;;;;5036950;28;20474;-76
2020/12/09 00:26:32;;;;;;;43.60;24.83;;;3.10;81.70;;;;;;5036833;28;20025;-77
2020/12/09 00:28:58;;;;;;;47.10;26.90;;;3.10;81.80;;;;;;5035878;28;20075;-76
2020/12/09 00:31:29;;;;;;;47.33;26.88;;;3.10;81.90;;;;;;5035834;28;20021;-78
2020/12/09 00:33:55;;;;;;;50.15;25.25;;;3.10;82.10;;;;;;5036106;28;20474;-77
2020/12/09 00:36:22;;;;;;;49.75;26.40;;;3.10;82.10;;;;;;5036661;28;20071;-77
2020/12/09 00:38:49;;;;;;;50.28;26.42;;;3.10;82.20;;;;;;5037265;28;20033;-76
2020/12/09 00:41:28;;;;;;;45.17;24.25;;;3.00;82.50;;;;;;5026257;28;20031;-78
2020/12/09 00:43:56;;;;;;;45.40;24.30;;;3.00;82.80;;;;;;5018758;28;20017;-84
2020/12/09 00:46:24;;;;;;;49.47;27.40;;;3.00;82.90;;;;;;5079686;23;20080;-78
2020/12/09 00:51:26;;;;;;;51.75;26.88;;;3.00;83.20;;;;;;5107671;23;20482;-77
2020/12/09 00:53:52;;;;;;;50.83;27.52;;;2.80;83.70;;;;;;5016512;28;20048;-87
2020/12/09 00:56:18;;;;;;;48.25;26.13;;;2.90;84.20;;;;;;5034870;28;20017;-77
2020/12/09 00:58:44;;;;;;;49.33;27.33;;;2.80;84.20;;;;;;5034174;28;20036;-76
2020/12/09 01:01:23;;;;;;;49.97;29.02;;;2.80;84.30;;;;;;5035419;28;20037;-77
2020/12/09 01:03:48;;;;;;;46.55;26.77;;;2.90;84.30;;;;;;5032712;28;20022;-76
2020/12/09 01:06:20;;;;;;;51.10;26.85;;;2.90;84.30;;;;;;5033935;28;20113;-87
2020/12/09 01:08:46;;;;;;;47.45;25.73;;;2.80;84.40;;;;;;5032797;28;20049;-76
2020/12/09 01:11:12;;;;;;;52.95;27.13;;;2.80;84.60;;;;;;5085778;23;20517;-89
2020/12/09 01:16:14;;;;;;;46.38;25.30;;;2.90;84.80;;;;;;5170245;23;20057;-75
2020/12/09 01:21:30;;;;;;;52.63;29.05;;;2.90;84.50;;;;;;5039940;23;20069;-75
2020/12/09 01:23:56;;;;;;;53.05;29.60;;;2.90;84.30;;;;;;5100800;23;20410;-75
2020/12/09 01:26:22;;;;;;;52.45;29.08;;;2.90;84.20;;;;;;5014901;28;20489;-75
2020/12/09 01:29:03;;;;;;;57.60;31.67;;;2.90;84.20;;;;;;5274652;23;20084;-75
2020/12/09 01:31:29;;;;;;;52.17;29.60;;;2.90;85.20;;;;;;5033901;28;20083;-75
2020/12/09 01:36:32;;;;;;;50.38;28.20;;;3.00;84.20;;;;;;5697584;23;20107;-76
2020/12/09 01:38:58;;;;;;;46.65;26.95;;;3.00;84.10;;;;;;5039389;23;20437;-75
2020/12/09 01:41:24;;;;;;;54.30;30.20;;;3.00;84.10;;;;;;5015225;28;20117;-75
2020/12/09 01:43:51;;;;;;;50.40;27.85;;;3.00;84.20;;;;;;5015726;28;20136;-85
2020/12/09 01:46:43;;;;;;;48.85;28.17;;;3.00;84.10;;;;;;5034641;28;20037;-88
2020/12/09 01:49:10;;;;;;;47.75;26.55;;;3.00;84.10;;;;;;5004802;28;20036;-75
2020/12/09 01:51:35;;;;;;;47.90;27.08;;;3.10;84.20;;;;;;5033076;28;20021;-76
2020/12/09 01:54:01;;;;;;;44.60;25.95;;;3.10;84.20;;;;;;5033062;28;20108;-74
2020/12/09 01:56:30;;;;;;;44.92;25.67;;;3.10;84.10;;;;;;5034386;28;20520;-83
2020/12/09 01:58:55;;;;;;;40.28;22.80;;;3.20;83.90;;;;;;5033672;28;20029;-77
2020/12/09 02:01:26;;;;;;;45.80;26.00;;;3.20;83.70;;;;;;5033602;28;20411;-76
2020/12/09 02:03:51;;;;;;;46.53;27.60;;;3.30;83.60;;;;;;5016625;28;20030;-76
2020/12/09 02:06:18;;;;;;;45.60;25.42;;;3.20;83.40;;;;;;5034141;28;20028;-76
2020/12/09 02:08:45;;;;;;;46.72;26.50;;;3.30;83.50;;;;;;5034498;28;20103;-76
2020/12/09 02:11:11;;;;;;;51.33;27.20;;;3.20;83.30;;;;;;5034348;28;20474;-77
2020/12/09 02:13:44;;;;;;;49.25;27.10;;;3.30;83.30;;;;;;5016508;28;20029;-76
2020/12/09 02:16:13;;;;;;;46.50;25.70;;;3.20;83.20;;;;;;5033801;28;20021;-76
2020/12/09 02:18:39;;;;;;;49.00;27.88;;;3.20;83.30;;;;;;5017269;28;20018;-76
2020/12/09 02:21:05;;;;;;;48.80;26.27;;;3.30;83.40;;;;;;5033808;28;20113;-76
2020/12/09 02:23:30;;;;;;;46.28;25.40;;;3.20;83.40;;;;;;5033747;28;20057;-75
2020/12/09 02:25:56;;;;;;;44.90;25.65;;;3.20;83.50;;;;;;5034087;28;20092;-76
2020/12/09 02:28:22;;;;;;;42.95;25.23;;;3.20;83.60;;;;;;5034576;28;20057;-76
2020/12/09 02:30:47;;;;;;;42.38;24.58;;;3.30;83.70;;;;;;5034817;28;20048;-76
2020/12/09 02:33:13;;;;;;;43.13;24.23;;;3.30;83.70;;;;;;5033905;28;20060;-79
2020/12/09 02:35:39;;;;;;;42.60;25.13;;;3.20;83.50;;;;;;5032799;28;20428;-75
2020/12/09 02:38:04;;;;;;;39.17;23.08;;;3.30;83.60;;;;;;5036172;28;20029;-76
2020/12/09 02:40:30;;;;;;;41.33;23.02;;;3.30;83.60;;;;;;5036399;28;20049;-76
2020/12/09 02:42:55;;;;;;;40.17;22.20;;;3.30;83.60;;;;;;5036394;28;20056;-76
2020/12/09 02:45:23;;;;;;;39.45;21.73;;;3.30;83.70;;;;;;5018816;28;20071;-76
2020/12/09 02:47:49;;;;;;;35.47;21.02;;;3.20;84.00;;;;;;5018821;28;20057;-76
2020/12/09 02:50:14;;;;;;;38.70;22.77;;;3.20;84.20;;;;;;5036478;28;20079;-87
2020/12/09 02:52:40;;;;;;;34.80;20.45;;;3.20;84.20;;;;;;5036418;28;20414;-75
2020/12/09 02:55:05;;;;;;;33.05;18.58;;;3.20;84.10;;;;;;5036198;28;20022;-76
2020/12/09 02:57:31;;;;;;;40.47;23.65;;;3.20;84.10;;;;;;5036094;28;20030;-75
2020/12/09 02:59:56;;;;;;;38.53;21.85;;;3.20;84.30;;;;;;5036459;28;20025;-77
2020/12/09 03:02:22;;;;;;;37.85;21.17;;;3.20;84.40;;;;;;5036143;28;20039;-75
2020/12/09 03:04:54;;;;;;;41.42;22.02;;;3.20;84.40;;;;;;5018352;28;20025;-89
2020/12/09 03:07:19;;;;;;;41.13;22.63;;;3.20;84.20;;;;;;5025245;23;20451;-76
2020/12/09 03:09:45;;;;;;;40.60;23.27;;;3.20;84.20;;;;;;5034614;28;20060;-76
2020/12/09 03:12:16;;;;;;;41.58;22.13;;;3.10;84.50;;;;;;5035915;28;20467;-76
2020/12/09 03:14:42;;;;;;;42.80;23.40;;;3.10;84.70;;;;;;5035804;28;20513;-77
2020/12/09 03:17:08;;;;;;;43.13;23.35;;;3.10;84.70;;;;;;5018094;28;20059;-76
2020/12/09 03:19:33;;;;;;;40.97;22.27;;;3.10;84.90;;;;;;5035691;28;20060;-76
2020/12/09 03:21:59;;;;;;;41.47;23.52;;;3.00;84.70;;;;;;5019233;28;20083;-76
2020/12/09 03:24:24;;;;;;;42.70;23.35;;;3.00;84.80;;;;;;5035736;28;20026;-77
2020/12/09 03:26:50;;;;;;;41.92;22.90;;;3.10;84.80;;;;;;5035943;28;20022;-77
2020/12/09 03:29:15;;;;;;;42.50;22.98;;;3.10;84.80;;;;;;5017930;28;20021;-88
2020/12/09 03:31:41;;;;;;;44.70;25.42;;;3.10;84.70;;;;;;5035594;28;20433;-77
2020/12/09 03:34:06;;;;;;;42.25;24.27;;;3.10;84.50;;;;;;5035749;28;20056;-76
2020/12/09 03:36:32;;;;;;;43.58;24.17;;;3.10;84.60;;;;;;5035467;28;20026;-77
2020/12/09 03:38:58;;;;;;;44.13;25.10;;;3.10;84.70;;;;;;5017852;28;20129;-76
2020/12/09 03:41:23;;;;;;;42.38;21.83;;;3.00;84.80;;;;;;5036926;28;20037;-76
2020/12/09 03:43:49;;;;;;;47.90;25.20;;;3.10;85.00;;;;;;5033945;28;20405;-76
2020/12/09 03:46:14;;;;;;;44.58;24.63;;;3.10;85.10;;;;;;5036583;28;20474;-76
2020/12/09 03:48:40;;;;;;;45.30;24.80;;;3.00;85.00;;;;;;5036024;28;20036;-76
2020/12/09 03:51:05;;;;;;;45.50;25.27;;;3.10;85.10;;;;;;5036337;28;20033;-74
2020/12/09 03:53:33;;;;;;;40.97;23.33;;;3.10;85.20;;;;;;5035551;28;20460;-76
2020/12/09 03:55:59;;;;;;;40.67;23.67;;;3.10;85.30;;;;;;5035175;28;20390;-76
2020/12/09 03:58:24;;;;;;;42.72;23.13;;;3.10;85.20;;;;;;5035153;28;20090;-76
2020/12/09 04:00:50;;;;;;;42.08;24.25;;;3.10;85.20;;;;;;5035591;28;20512;-76
2020/12/09 04:03:16;;;;;;;39.10;22.73;;;3.10;85.00;;;;;;5035374;28;20026;-76
2020/12/09 04:05:41;;;;;;;46.03;26.02;;;3.10;85.00;;;;;;5034990;28;20120;-76
2020/12/09 04:08:07;;;;;;;45.90;26.33;;;3.10;84.90;;;;;;5034836;28;20111;-80
2020/12/09 04:10:32;;;;;;;42.33;23.80;;;3.10;84.80;;;;;;5034568;28;20022;-76
2020/12/09 04:12:58;;;;;;;45.83;25.83;;;3.10;84.80;;;;;;5034785;28;20496;-76
2020/12/09 04:15:29;;;;;;;40.75;23.33;;;3.10;84.70;;;;;;5034442;28;20029;-76
2020/12/09 04:20:33;;;;;;;46.60;25.00;;;3.10;84.50;;;;;;5156018;23;20049;-76
2020/12/09 04:22:58;;;;;;;43.95;24.13;;;3.10;84.50;;;;;;5033145;28;20375;-77
2020/12/09 04:25:24;;;;;;;43.67;23.48;;;3.00;84.60;;;;;;5034432;28;20100;-76
2020/12/09 04:27:53;;;;;;;44.25;23.67;;;3.00;84.80;;;;;;5035540;28;20036;-86
2020/12/09 04:30:21;;;;;;;42.85;22.23;;;3.00;84.80;;;;;;5114353;23;20498;-76
2020/12/09 04:32:48;;;;;;;38.33;21.55;;;3.00;84.80;;;;;;5016836;28;20037;-76
2020/12/09 04:35:13;;;;;;;38.63;22.13;;;3.00;84.80;;;;;;5034536;28;20025;-77
2020/12/09 04:37:40;;;;;;;38.53;21.40;;;2.90;85.20;;;;;;5016500;28;20389;-76
2020/12/09 04:40:06;;;;;;;33.42;18.98;;;2.90;85.20;;;;;;5016416;28;20026;-77
2020/12/09 04:42:32;;;;;;;36.55;20.50;;;2.90;85.30;;;;;;5034186;28;20037;-75
2020/12/09 04:44:58;;;;;;;33.80;19.70;;;2.90;85.40;;;;;;5033991;28;20022;-76
2020/12/09 04:47:27;;;;;;;34.75;19.23;;;2.90;85.40;;;;;;5034009;28;20057;-76
2020/12/09 04:50:09;;;;;;;31.88;19.27;;;2.90;85.60;;;;;;5034070;28;20026;-76
2020/12/09 04:53:17;;;;;;;27.08;17.35;;;2.90;85.60;;;;;;5033842;28;20021;-86
2020/12/09 04:56:05;;;;;;;27.13;16.10;;;2.80;85.50;;;;;;5016392;28;20470;-87
2020/12/09 04:58:43;;;;;;;26.83;15.63;;;2.80;85.70;;;;;;5033976;28;20053;-75
2020/12/09 05:01:13;;;;;;;28.83;16.20;;;2.80;85.70;;;;;;5033642;28;20105;-76
2020/12/09 05:03:47;;;;;;;24.85;15.25;;;2.80;85.80;;;;;;5033714;28;20025;-76
2020/12/09 05:06:51;;;;;;;30.73;17.38;;;2.70;86.00;;;;;;5016272;28;20051;-76
2020/12/09 05:09:17;;;;;;;24.90;14.40;;;2.80;86.30;;;;;;4998046;28;20048;-76
2020/12/09 05:16:58;;;;;;;21.20;13.50;;;2.70;86.40;;;;;;5125962;23;20053;-75
2020/12/09 05:19:23;;;;;;;18.70;11.75;;;2.60;86.50;;;;;;5015786;28;20031;-76
2020/12/09 05:21:50;;;;;;;22.15;13.85;;;2.70;86.60;;;;;;5033461;28;20033;-77
2020/12/09 05:24:19;;;;;;;20.38;11.93;;;2.60;86.70;;;;;;5015897;28;20474;-77
2020/12/09 05:26:45;;;;;;;20.00;12.15;;;2.60;86.80;;;;;;5015693;28;20037;-75
2020/12/09 05:29:16;;;;;;;19.98;12.35;;;2.50;87.10;;;;;;5015628;28;20466;-76
2020/12/09 05:31:47;;;;;;;19.70;11.80;;;2.60;87.10;;;;;;5033356;28;20029;-76
2020/12/09 05:34:21;;;;;;;19.50;11.40;;;2.60;87.10;;;;;;5033446;28;20060;-77
2020/12/09 05:36:48;;;;;;;17.23;10.95;;;2.60;87.20;;;;;;5015529;28;20037;-78
2020/12/09 05:39:14;;;;;;;16.30;10.48;;;2.60;87.30;;;;;;5033449;28;20383;-77
2020/12/09 05:41:45;;;;;;;22.60;12.32;;;2.60;87.10;;;;;;5037257;28;20013;-77
2020/12/09 05:44:11;;;;;;;18.58;11.02;;;2.60;87.10;;;;;;5047486;23;20064;-76
2020/12/09 05:47:02;;;;;;;23.25;12.50;;;2.60;87.10;;;;;;5054644;23;20160;-75
2020/12/09 05:49:30;;;;;;;27.55;13.40;;;2.70;87.30;;;;;;5016382;28;20382;-76
2020/12/09 05:52:25;;;;;;;22.73;12.25;;;2.70;87.20;;;;;;5018662;28;20085;-81
2020/12/09 05:54:56;;;;;;;22.50;13.05;;;2.70;87.00;;;;;;5022729;28;20038;-75
2020/12/09 05:57:25;;;;;;;28.10;14.85;;;2.70;86.60;;;;;;5127733;23;20030;-75
2020/12/09 05:59:51;;;;;;;24.92;13.80;;;2.70;86.70;;;;;;5019975;28;20120;-76
2020/12/09 06:02:22;;;;;;;25.05;13.35;;;2.70;86.60;;;;;;5017371;28;20525;-76
2020/12/09 06:05:01;;;;;;;30.75;15.93;;;2.70;86.60;;;;;;5014756;28;20062;-78
2020/12/09 06:07:29;;;;;;;24.20;13.27;;;2.70;86.80;;;;;;5014350;28;20026;-75
2020/12/09 06:10:13;;;;;;;25.70;13.32;;;2.70;86.70;;;;;;5017896;28;20105;-87
2020/12/09 06:13:01;;;;;;;21.77;11.50;;;2.60;87.70;;;;;;5018203;28;20041;-77
2020/12/09 06:15:33;;;;;;;20.25;12.50;;;2.60;87.20;;;;;;5017385;28;20022;-77
2020/12/09 06:18:07;;;;;;;21.50;12.68;;;2.70;87.30;;;;;;5016896;28;20033;-80
2020/12/09 06:20:39;;;;;;;25.70;14.88;;;2.70;87.30;;;;;;5017249;28;20113;-90
2020/12/09 06:23:11;;;;;;;29.15;12.95;;;2.70;87.10;;;;;;5075443;23;20049;-78
2020/12/09 06:25:38;;;;;;;26.52;13.85;;;2.70;87.10;;;;;;5061683;23;21102;-80
2020/12/09 06:28:09;;;;;;;22.23;13.27;;;2.70;87.10;;;;;;5036394;28;20497;-79
2020/12/09 06:30:35;;;;;;;25.90;14.73;;;2.70;87.10;;;;;;5025181;23;20094;-78
2020/12/09 06:33:00;;;;;;;26.95;13.35;;;2.70;87.20;;;;;;5034780;28;20429;-76
2020/12/09 06:35:26;;;;;;;22.58;13.65;;;2.70;87.10;;;;;;5036310;28;20427;-77
2020/12/09 06:38:10;;;;;;;21.40;12.77;;;2.70;87.00;;;;;;5036044;28;20026;-76
2020/12/09 06:40:36;;;;;;;25.52;13.90;;;2.80;86.90;;;;;;5035814;28;20044;-76
2020/12/09 06:43:09;;;;;;;22.48;11.93;;;2.80;86.80;;;;;;5036412;28;20026;-76
2020/12/09 06:45:45;;;;;;;20.05;12.35;;;2.80;86.60;;;;;;5018291;28;20116;-78
2020/12/09 06:48:15;;;;;;;19.63;11.63;;;2.80;86.50;;;;;;5035818;28;20025;-76
2020/12/09 06:50:50;;;;;;;18.80;11.02;;;2.80;86.50;;;;;;5036167;28;20053;-76
2020/12/09 06:53:23;;;;;;;17.85;10.65;;;2.90;86.60;;;;;;5036212;28;20036;-77
2020/12/09 06:55:51;;;;;;;18.63;11.48;;;2.90;86.60;;;;;;5044975;23;20042;-76
2020/12/09 06:58:29;;;;;;;19.85;11.82;;;2.90;86.20;;;;;;5018675;28;20441;-76
2020/12/09 07:01:20;;;;;;;17.65;10.40;;;2.90;86.00;;;;;;5023895;28;20101;-87
2020/12/09 07:03:51;;;;;;;18.08;10.55;;;2.90;86.10;;;;;;5031956;23;20597;-76
2020/12/09 07:06:19;;;;;;;18.60;11.25;;;2.90;86.10;;;;;;5018613;28;20112;-77
2020/12/09 07:08:45;;;;;;;17.63;11.13;;;2.90;86.20;;;;;;5036215;28;20029;-76
2020/12/09 07:11:11;;;;;;;16.50;9.40;;;2.80;86.10;;;;;;5036179;28;20143;-76
2020/12/09 07:13:37;;;;;;;18.00;10.68;;;2.90;86.10;;;;;;5035356;28;20056;-77
2020/12/09 07:16:11;;;;;;;19.50;10.63;;;2.90;86.10;;;;;;5051722;23;20049;-89
2020/12/09 07:18:37;;;;;;;16.27;9.65;;;2.90;86.40;;;;;;5034034;28;20028;-78
2020/12/09 07:21:05;;;;;;;14.75;9.07;;;2.90;86.60;;;;;;5035428;28;20116;-77
2020/12/09 07:23:31;;;;;;;16.15;9.90;;;3.00;86.70;;;;;;5034262;28;20100;-76
2020/12/09 07:25:59;;;;;;;17.58;10.95;;;3.00;86.50;;;;;;5017557;28;20064;-76
2020/12/09 07:28:40;;;;;;;20.05;10.68;;;3.00;86.20;;;;;;5094609;23;20068;-75
2020/12/09 07:31:07;;;;;;;16.35;10.90;;;3.10;86.10;;;;;;5033809;28;20032;-76
2020/12/09 07:33:33;;;;;;;16.65;10.07;;;3.10;86.00;;;;;;5035109;28;20099;-75
2020/12/09 07:36:01;;;;;;;18.80;11.48;;;3.10;85.80;;;;;;5035443;28;20022;-75
2020/12/09 07:38:26;;;;;;;20.33;11.05;;;3.10;85.70;;;;;;5035171;28;20037;-77
2020/12/09 07:40:58;;;;;;;15.00;10.23;;;3.10;85.70;;;;;;5035390;28;20447;-76
2020/12/09 07:43:24;;;;;;;18.40;11.20;;;3.10;85.70;;;;;;5017172;28;20036;-77
2020/12/09 07:45:49;;;;;;;21.83;11.60;;;3.10;85.70;;;;;;5034936;28;20104;-76
2020/12/09 07:48:17;;;;;;;17.50;11.05;;;3.10;85.60;;;;;;5035403;28;20029;-87
2020/12/09 07:50:59;;;;;;;19.15;11.55;;;3.10;85.60;;;;;;5017329;28;20030;-76
2020/12/09 07:53:25;;;;;;;16.90;10.32;;;3.20;85.50;;;;;;5017610;28;20033;-76
2020/12/09 07:55:51;;;;;;;15.00;9.48;;;3.10;85.30;;;;;;5034897;28;20025;-76
2020/12/09 07:58:18;;;;;;;16.55;8.88;;;3.10;85.20;;;;;;5034934;28;20047;-76
2020/12/09 08:00:53;;;;;;;13.35;9.07;;;3.00;85.30;;;;;;5035515;28;20069;-88
2020/12/09 08:03:30;;;;;;;17.08;9.32;;;3.00;85.40;;;;;;5034801;28;20525;-76
2020/12/09 08:05:56;;;;;;;15.65;9.40;;;3.00;85.70;;;;;;5036299;23;20045;-77
2020/12/09 08:08:25;;;;;;;15.10;9.15;;;2.90;85.70;;;;;;5016925;28;20024;-76
2020/12/09 08:10:51;;;;;;;14.25;9.30;;;2.90;85.80;;;;;;5035515;28;20025;-77
2020/12/09 08:13:25;;;;;;;13.85;8.52;;;2.80;85.90;;;;;;5035619;28;20436;-82
2020/12/09 08:16:10;;;;;;;12.77;7.95;;;2.80;86.10;;;;;;5034921;28;20025;-76
2020/12/09 08:18:40;;;;;;;14.60;8.38;;;2.80;86.10;;;;;;5041642;23;20026;-90
2020/12/09 08:21:07;;;;;;;13.20;8.15;;;2.90;86.30;;;;;;5016829;28;20136;-77
2020/12/09 08:23:41;;;;;;;13.50;8.35;;;2.80;86.10;;;;;;5034589;28;20071;-77
2020/12/09 08:26:08;;;;;;;13.65;8.27;;;2.90;86.20;;;;;;5016618;28;20057;-77
2020/12/09 08:28:52;;;;;;;13.27;9.02;;;2.80;86.10;;;;;;5034153;28;20464;-88
2020/12/09 08:31:19;;;;;;;12.80;8.40;;;2.90;86.40;;;;;;5016718;28;20131;-75
2020/12/09 08:33:45;;;;;;;15.00;8.98;;;2.90;86.10;;;;;;5024307;23;20017;-76
2020/12/09 08:36:16;;;;;;;10.90;7.55;;;2.90;86.10;;;;;;5016956;23;20045;-76
2020/12/09 08:39:08;;;;;;;12.70;8.45;;;2.90;86.10;;;;;;4996607;28;20038;-77
2020/12/09 08:41:36;;;;;;;12.73;8.55;;;2.80;86.00;;;;;;5014130;28;20113;-76
2020/12/09 08:44:04;;;;;;;12.38;7.38;;;2.90;86.20;;;;;;5014289;28;20061;-77
2020/12/09 08:46:30;;;;;;;13.15;7.95;;;2.90;86.60;;;;;;5013951;28;20101;-77
2020/12/09 08:48:57;;;;;;;14.52;9.13;;;3.00;86.80;;;;;;5014016;28;20018;-76
2020/12/09 08:51:28;;;;;;;13.18;8.52;;;3.10;86.50;;;;;;5014260;28;20471;-75
2020/12/09 08:53:54;;;;;;;21.13;10.52;;;3.20;86.50;;;;;;5013707;28;20026;-74
2020/12/09 08:56:26;;;;;;;10.68;7.38;;;3.60;90.20;;;;;;5013866;28;20022;-75
2020/12/09 08:58:52;;;;;;;11.55;7.18;;;3.80;87.80;;;;;;5013828;28;20026;-75
2020/12/09 09:01:18;;;;;;;10.52;6.72;;;4.30;87.40;;;;;;5013477;28;20137;-75
2020/12/09 09:03:45;;;;;;;9.98;7.03;;;4.50;85.80;;;;;;5013583;28;20022;-74
2020/12/09 09:06:10;;;;;;;10.18;7.03;;;4.70;82.30;;;;;;5013797;28;20088;-78
2020/12/09 09:08:36;;;;;;;10.73;6.57;;;4.80;79.50;;;;;;4996227;28;20483;-79
2020/12/09 09:11:02;;;;;;;9.75;6.28;;;4.70;78.70;;;;;;5013810;28;20018;-77
2020/12/09 09:13:27;;;;;;;7.95;5.78;;;4.40;78.30;;;;;;5013875;28;20025;-77
2020/12/09 09:15:53;;;;;;;11.25;6.07;;;4.30;78.80;;;;;;5016606;28;20022;-80
2020/12/09 09:18:18;;;;;;;10.07;6.63;;;4.10;79.40;;;;;;5020709;23;20049;-77
2020/12/09 09:20:44;;;;;;;8.45;6.35;;;3.90;80.20;;;;;;5016511;28;20036;-77
2020/12/09 09:25:36;;;;;;;9.27;6.35;;;3.70;81.20;;;;;;5037867;23;20524;-76
2020/12/09 09:28:02;;;;;;;9.95;6.75;;;3.70;81.70;;;;;;5015378;28;20032;-77
2020/12/09 09:30:27;;;;;;;8.95;6.18;;;3.60;82.10;;;;;;5015371;28;20025;-77
2020/12/09 09:32:53;;;;;;;14.13;8.82;;;3.60;82.30;;;;;;5033137;28;20033;-77
2020/12/09 09:35:20;;;;;;;11.02;6.78;;;3.60;82.40;;;;;;5033386;28;20028;-78
2020/12/09 09:37:45;;;;;;;11.05;6.88;;;3.60;82.40;;;;;;5032753;28;20513;-77
2020/12/09 09:42:42;;;;;;;9.52;6.93;;;3.50;82.70;;;;;;5307105;23;20068;-77
2020/12/09 09:45:10;;;;;;;11.15;7.82;;;3.40;82.90;;;;;;5015475;28;20021;-76
2020/12/09 09:47:36;;;;;;;12.73;7.85;;;3.40;83.30;;;;;;5038387;28;20060;-77
2020/12/09 09:50:08;;;;;;;13.07;8.13;;;3.40;83.40;;;;;;5052369;28;20077;-78
2020/12/09 09:55:55;;;;;;;12.50;7.20;;;3.40;83.60;;;;;;5061501;23;20068;-78
2020/12/09 10:00:55;;;;;;;15.30;8.82;;;3.30;83.90;;;;;;5020371;23;20053;-78
2020/12/09 10:03:21;;;;;;;10.98;7.60;;;3.30;83.80;;;;;;5026590;28;20026;-78
2020/12/09 10:05:46;;;;;;;12.70;8.23;;;3.30;84.00;;;;;;5050106;28;20045;-77
2020/12/09 10:08:12;;;;;;;12.10;7.57;;;3.30;84.00;;;;;;5035200;28;20421;-78
2020/12/09 10:10:37;;;;;;;10.43;7.07;;;3.30;84.40;;;;;;5016306;28;20386;-77
2020/12/09 10:13:03;;;;;;;14.55;7.43;;;3.40;84.30;;;;;;5016247;28;20161;-79
2020/12/09 10:15:28;;;;;;;11.63;7.05;;;3.40;84.20;;;;;;5034086;28;20022;-79
2020/12/09 10:17:54;;;;;;;10.40;7.05;;;3.30;84.40;;;;;;5032759;28;20068;-78
2020/12/09 10:20:19;;;;;;;9.95;6.85;;;3.30;84.70;;;;;;5016395;28;20036;-79
2020/12/09 10:22:45;;;;;;;7.47;5.82;;;3.30;84.70;;;;;;5033683;28;20029;-81
2020/12/09 10:25:11;;;;;;;9.18;6.40;;;3.30;84.60;;;;;;5033128;28;20030;-78
2020/12/09 10:27:36;;;;;;;10.63;6.85;;;3.30;84.70;;;;;;5032459;28;20030;-78
2020/12/09 10:30:04;;;;;;;9.02;6.35;;;3.40;84.60;;;;;;5032701;28;20379;-78
2020/12/09 10:32:29;;;;;;;10.80;7.38;;;3.50;84.60;;;;;;5015506;28;20446;-79
2020/12/09 10:34:55;;;;;;;10.57;6.97;;;3.50;84.30;;;;;;5032616;28;20108;-79
2020/12/09 10:37:21;;;;;;;12.23;8.40;;;3.50;83.80;;;;;;5033548;28;20017;-81
2020/12/09 10:39:51;;;;;;;14.45;9.13;;;3.30;84.20;;;;;;5015242;28;20120;-78
2020/12/09 10:42:17;;;;;;;14.32;8.45;;;3.30;84.40;;;;;;5032667;28;20140;-78
2020/12/09 10:44:43;;;;;;;10.80;7.47;;;3.30;84.40;;;;;;5032445;28;20375;-78
2020/12/09 10:47:09;;;;;;;11.77;7.80;;;3.40;84.40;;;;;;5032712;28;20021;-78
2020/12/09 10:49:34;;;;;;;15.35;8.68;;;3.40;84.70;;;;;;5032355;28;20029;-79
2020/12/09 10:52:00;;;;;;;13.15;8.68;;;3.30;84.70;;;;;;5032612;28;20025;-80
2020/12/09 10:54:26;;;;;;;12.88;8.18;;;3.30;84.90;;;;;;5032761;28;20021;-75
2020/12/09 10:56:51;;;;;;;11.20;7.82;;;3.20;85.20;;;;;;5032362;28;20029;-76
2020/12/09 10:59:17;;;;;;;13.70;7.82;;;3.20;85.30;;;;;;5035722;28;20040;-75
2020/12/09 11:01:44;;;;;;;12.60;7.50;;;3.10;85.60;;;;;;5035379;28;20050;-75
2020/12/09 11:04:10;;;;;;;12.07;7.75;;;3.00;85.70;;;;;;5035604;28;20147;-78
2020/12/09 11:06:37;;;;;;;12.20;8.07;;;3.00;86.00;;;;;;5035525;28;20087;-78
2020/12/09 11:09:05;;;;;;;12.60;8.63;;;3.00;86.30;;;;;;5035823;28;20441;-76
2020/12/09 11:11:31;;;;;;;12.30;7.93;;;3.00;86.50;;;;;;5035392;28;20041;-75
2020/12/09 11:13:57;;;;;;;13.57;8.55;;;3.00;86.70;;;;;;5035564;28;20036;-76
2020/12/09 11:16:23;;;;;;;13.65;8.40;;;3.00;86.60;;;;;;5035572;28;20033;-78
2020/12/09 11:18:49;;;;;;;13.13;8.55;;;3.00;86.70;;;;;;5035531;28;20022;-76
2020/12/09 11:21:20;;;;;;;13.73;9.15;;;3.10;86.60;;;;;;5035388;28;20034;-77
2020/12/09 11:23:46;;;;;;;16.17;9.32;;;3.10;86.40;;;;;;5017323;28;20022;-80
2020/12/09 11:26:12;;;;;;;14.80;9.35;;;3.10;86.60;;;;;;5035751;28;20025;-80
2020/12/09 11:28:38;;;;;;;14.73;9.20;;;3.10;86.30;;;;;;5035856;28;20024;-78
2020/12/09 11:31:04;;;;;;;11.95;8.65;;;3.10;86.10;;;;;;5035934;28;20381;-78
2020/12/09 11:36:26;;;;;;;18.15;9.63;;;3.10;86.10;;;;;;5166470;23;20052;-82
2020/12/09 11:38:53;;;;;;;16.38;9.10;;;3.20;85.60;;;;;;5021808;28;20021;-78
2020/12/09 11:41:27;;;;;;;14.35;8.85;;;3.10;85.80;;;;;;5036102;28;20049;-75
2020/12/09 11:43:55;;;;;;;14.40;8.50;;;3.10;85.80;;;;;;5020829;28;20026;-75
2020/12/09 11:46:27;;;;;;;14.13;8.55;;;3.00;86.00;;;;;;5038124;28;20040;-75
2020/12/09 11:48:53;;;;;;;13.05;7.90;;;3.00;85.70;;;;;;5020969;28;20478;-74
2020/12/09 11:51:19;;;;;;;12.40;7.22;;;3.00;85.50;;;;;;5020481;28;20044;-79
2020/12/09 11:53:45;;;;;;;10.85;7.18;;;3.10;85.60;;;;;;5019661;28;20124;-76
2020/12/09 11:56:11;;;;;;;11.40;7.22;;;3.10;85.40;;;;;;5034043;28;20443;-76
2020/12/09 11:58:38;;;;;;;12.60;7.93;;;3.10;85.30;;;;;;5033761;28;20101;-77
2020/12/09 12:01:07;;;;;;;14.85;8.88;;;3.10;85.20;;;;;;5033627;28;20033;-78
2020/12/09 12:03:33;;;;;;;15.43;8.52;;;3.10;85.30;;;;;;5033625;28;20033;-77
2020/12/09 12:05:59;;;;;;;12.20;7.75;;;3.10;85.40;;;;;;5033340;28;20026;-77
2020/12/09 12:08:25;;;;;;;10.77;6.60;;;3.20;85.40;;;;;;5034161;28;20381;-78
2020/12/09 12:10:50;;;;;;;8.18;5.72;;;3.20;85.20;;;;;;5033732;28;20029;-76
2020/12/09 12:13:16;;;;;;;9.20;5.80;;;3.20;84.90;;;;;;5016616;28;20021;-76
2020/12/09 12:15:42;;;;;;;7.88;4.93;;;3.20;84.70;;;;;;5034669;28;20474;-77
2020/12/09 12:18:08;;;;;;;8.77;5.05;;;3.20;84.50;;;;;;5034474;28;20540;-79
2020/12/09 12:20:34;;;;;;;7.00;4.82;;;3.20;84.40;;;;;;5016296;28;20037;-77
2020/12/09 12:23:00;;;;;;;7.82;5.18;;;3.00;84.80;;;;;;5034259;28;20029;-78
2020/12/09 12:25:25;;;;;;;9.00;5.38;;;3.00;85.20;;;;;;5034275;28;20018;-78
2020/12/09 12:27:51;;;;;;;8.63;5.05;;;3.00;85.30;;;;;;5034163;28;20609;-78
2020/12/09 12:30:16;;;;;;;10.25;5.80;;;3.00;85.40;;;;;;5034570;28;20478;-79
2020/12/09 12:32:42;;;;;;;7.45;5.03;;;2.90;87.10;;;;;;5034446;28;20048;-80
2020/12/09 12:35:08;;;;;;;10.80;5.50;;;2.90;86.60;;;;;;5034244;28;20041;-78
2020/12/09 12:37:34;;;;;;;8.27;5.60;;;3.00;86.60;;;;;;5016513;28;20025;-79
2020/12/09 12:40:01;;;;;;;8.20;5.90;;;3.10;86.60;;;;;;5034339;28;20053;-79
2020/12/09 12:42:27;;;;;;;7.97;4.90;;;3.10;86.10;;;;;;5034695;28;20033;-82
2020/12/09 12:44:52;;;;;;;8.23;5.78;;;3.20;86.00;;;;;;5034898;28;20348;-78
2020/12/09 12:47:18;;;;;;;7.00;4.75;;;3.20;85.60;;;;;;5034304;28;20048;-80
2020/12/09 12:49:43;;;;;;;7.80;5.20;;;3.30;85.60;;;;;;5034885;28;20032;-80
2020/12/09 12:52:12;;;;;;;8.48;5.50;;;3.30;85.30;;;;;;5034379;28;20048;-78
2020/12/09 12:54:37;;;;;;;8.05;5.85;;;3.20;85.00;;;;;;5016779;28;20034;-78
2020/12/09 12:57:03;;;;;;;9.32;6.38;;;3.20;84.90;;;;;;5034946;28;20099;-82
2020/12/09 12:59:29;;;;;;;10.23;5.90;;;3.30;85.00;;;;;;5035458;28;20506;-78
2020/12/09 13:01:59;;;;;;;8.77;6.20;;;3.30;85.10;;;;;;5034075;28;20037;-78
2020/12/09 13:04:29;;;;;;;8.90;5.97;;;3.40;84.90;;;;;;5034381;28;20025;-78
2020/12/09 13:06:54;;;;;;;9.02;5.18;;;3.40;85.00;;;;;;5034154;28;20493;-79
2020/12/09 13:09:20;;;;;;;10.13;6.63;;;3.40;84.80;;;;;;5034653;28;20039;-78
2020/12/09 13:11:46;;;;;;;9.75;6.97;;;3.40;84.30;;;;;;5016833;28;20053;-78
2020/12/09 13:14:12;;;;;;;8.07;5.82;;;3.30;83.90;;;;;;5034690;28;20354;-83
2020/12/09 13:16:38;;;;;;;11.00;6.45;;;3.30;84.00;;;;;;5035428;28;20033;-79
2020/12/09 13:19:04;;;;;;;9.93;6.13;;;3.30;84.20;;;;;;5034588;28;20021;-79
2020/12/09 13:21:29;;;;;;;10.43;6.95;;;3.30;84.40;;;;;;5034533;28;20114;-79